createdAt,value
2022-10-04T00:00:50.528Z,102098.44
2022-10-04T00:05:55.884Z,102100.00
2022-10-04T00:11:09.312Z,102100.47
2022-10-04T00:16:22.345Z,102094.88
2022-10-04T00:21:25.026Z,102093.75
2022-10-04T00:27:04.170Z,102095.19
2022-10-04T00:32:30.464Z,102084.69
2022-10-04T00:37:57.473Z,102095.22
2022-10-04T00:43:03.851Z,102087.22
2022-10-04T00:48:33.040Z,102070.91
2022-10-04T00:53:48.880Z,102079.72
2022-10-04T00:59:11.072Z,102072.44
2022-10-04T01:04:28.726Z,102069.44
2022-10-04T01:09:34.651Z,102063.66
2022-10-04T01:14:48.111Z,102058.25
2022-10-04T01:19:54.291Z,102065.63
2022-10-04T01:24:58.451Z,102063.19
2022-10-04T01:30:01.882Z,102059.72
2022-10-04T01:35:04.885Z,102042.56
2022-10-04T01:40:10.662Z,102044.69
2022-10-04T01:45:19.720Z,102000.53
2022-10-04T01:50:29.729Z,102030.88
2022-10-04T01:55:38.341Z,102029.16
2022-10-04T02:00:48.572Z,102013.50
2022-10-04T02:05:57.485Z,102010.44
2022-10-04T02:11:04.692Z,101997.66
2022-10-04T02:16:10.784Z,101985.63
2022-10-04T02:21:15.548Z,101981.56
2022-10-04T02:26:21.276Z,101974.25
2022-10-04T02:31:43.433Z,101980.16
2022-10-04T02:36:51.644Z,101979.91
2022-10-04T02:42:01.451Z,101957.88
2022-10-04T02:47:11.329Z,101979.38
2022-10-04T02:52:21.263Z,101979.63
2022-10-04T02:57:25.551Z,101962.06
2022-10-04T03:02:30.638Z,101933.38
2022-10-04T03:07:35.273Z,101951.50
2022-10-04T03:12:39.787Z,101943.69
2022-10-04T03:17:42.970Z,101944.78
2022-10-04T03:22:47.420Z,101936.19
2022-10-04T03:27:53.431Z,101912.63
2022-10-04T03:32:56.248Z,101936.13
2022-10-04T03:38:03.057Z,101932.34
2022-10-04T03:43:07.650Z,101929.88
2022-10-04T03:48:15.670Z,101916.78
2022-10-04T03:53:29.055Z,101927.56
2022-10-04T03:58:33.036Z,101916.38
2022-10-04T04:03:47.760Z,101918.59
2022-10-04T04:08:54.277Z,101918.56
2022-10-04T04:14:04.652Z,101918.56
2022-10-04T04:19:19.500Z,101923.09
2022-10-04T04:24:28.096Z,101916.31
2022-10-04T04:29:37.175Z,101912.03
2022-10-04T04:34:52.739Z,101903.13
2022-10-04T04:39:56.324Z,101896.13
2022-10-04T04:45:02.702Z,101892.00
2022-10-04T04:50:09.167Z,101878.97
2022-10-04T04:55:19.699Z,101873.75
2022-10-04T05:00:29.265Z,101873.50
2022-10-04T05:05:33.167Z,101837.22
2022-10-04T05:10:36.179Z,101873.28
2022-10-04T05:15:42.246Z,101871.03
2022-10-04T05:20:49.435Z,101875.09
2022-10-04T05:25:53.181Z,101872.75
2022-10-04T05:31:09.859Z,101875.09
2022-10-04T05:36:35.806Z,101868.03
2022-10-04T05:41:45.096Z,101876.50
2022-10-04T05:46:49.672Z,101880.72
2022-10-04T05:51:55.503Z,101875.56
2022-10-04T05:57:23.857Z,101866.63
2022-10-04T06:02:44.057Z,101863.50
2022-10-04T06:07:54.815Z,101871.50
2022-10-04T06:13:05.031Z,101879.09
2022-10-04T06:18:28.727Z,101872.09
2022-10-04T06:23:36.843Z,101884.22
2022-10-04T06:28:43.885Z,101882.34
2022-10-04T06:34:13.243Z,101888.13
2022-10-04T06:39:45.409Z,101848.31
2022-10-04T06:45:06.853Z,101885.00
2022-10-04T06:50:25.452Z,101887.47
2022-10-04T06:55:56.223Z,101885.97
2022-10-04T07:01:05.993Z,101898.06
2022-10-04T07:06:11.684Z,101901.06
2022-10-04T07:11:18.686Z,101896.09
2022-10-04T07:16:37.826Z,101897.06
2022-10-04T07:21:50.308Z,101901.88
2022-10-04T07:26:56.005Z,101897.84
2022-10-04T07:32:14.023Z,101895.19
2022-10-04T07:37:19.885Z,101901.34
2022-10-04T07:42:30.436Z,101899.31
2022-10-04T07:47:33.542Z,101907.03
2022-10-04T07:52:52.543Z,101906.16
2022-10-04T07:58:08.349Z,101907.53
2022-10-04T08:03:30.582Z,101904.38
2022-10-04T08:08:52.769Z,101899.50
2022-10-04T08:14:05.915Z,101883.38
2022-10-04T08:19:35.908Z,101879.25
2022-10-04T08:24:53.472Z,101885.31
2022-10-04T08:30:04.511Z,101890.22
2022-10-04T08:35:29.193Z,101893.00
2022-10-04T08:41:00.811Z,101890.16
2022-10-04T08:46:46.020Z,101879.47
2022-10-04T08:52:30.927Z,101892.19
2022-10-04T08:57:54.071Z,101877.22
2022-10-04T09:03:30.372Z,101879.06
2022-10-04T09:09:00.711Z,101876.47
2022-10-04T09:14:24.139Z,101874.59
2022-10-04T09:19:41.275Z,101873.28
2022-10-04T09:25:12.216Z,101874.47
2022-10-04T09:30:20.878Z,101877.41
2022-10-04T09:35:55.196Z,101869.81
2022-10-04T09:41:37.902Z,101862.97
2022-10-04T09:46:57.327Z,101860.47
2022-10-04T09:52:16.595Z,101861.59
2022-10-04T09:57:28.027Z,101866.13
2022-10-04T10:02:51.489Z,101830.09
2022-10-04T10:08:09.415Z,101848.06
2022-10-04T10:13:51.059Z,101850.34
2022-10-04T10:19:11.416Z,101846.19
2022-10-04T10:24:33.487Z,101847.09
2022-10-04T10:29:53.921Z,101837.72
2022-10-04T10:35:16.558Z,101846.28
2022-10-04T10:40:53.065Z,101847.06
2022-10-04T10:46:05.675Z,101846.84
2022-10-04T10:51:20.427Z,101842.25
2022-10-04T10:56:38.012Z,101828.28
2022-10-04T11:02:00.856Z,101826.69
2022-10-04T11:07:51.553Z,101819.38
2022-10-04T11:13:21.214Z,101811.63
2022-10-04T11:18:59.648Z,101819.66
2022-10-04T11:24:45.317Z,101812.28
2022-10-04T11:30:00.119Z,101812.00
2022-10-04T11:35:38.536Z,101799.81
2022-10-04T11:41:03.859Z,101805.66
2022-10-04T11:46:19.005Z,101803.59
2022-10-04T11:52:02.336Z,101809.63
2022-10-04T11:57:27.573Z,101795.06
2022-10-04T12:02:59.532Z,101787.19
2022-10-04T12:08:18.287Z,101781.66
2022-10-04T12:13:30.898Z,101768.81
2022-10-04T12:19:07.392Z,101754.22
2022-10-04T12:24:21.665Z,101758.50
2022-10-04T12:29:42.052Z,101755.16
2022-10-04T12:34:52.955Z,101739.94
2022-10-04T12:40:15.439Z,101735.50
2022-10-04T12:45:43.454Z,101734.75
2022-10-04T12:50:59.921Z,101733.97
2022-10-04T12:56:33.011Z,101732.44
2022-10-04T13:01:46.893Z,101733.13
2022-10-04T13:07:10.354Z,101726.81
2022-10-04T13:12:31.122Z,101713.34
2022-10-04T13:17:44.522Z,101695.22
2022-10-04T13:22:57.347Z,101690.69
2022-10-04T13:28:02.990Z,101684.38
2022-10-04T13:33:18.080Z,101686.38
2022-10-04T13:39:09.326Z,101666.56
2022-10-04T13:44:50.587Z,101660.25
2022-10-04T13:50:11.170Z,101664.50
2022-10-04T13:55:43.911Z,101668.63
2022-10-04T14:01:18.097Z,101655.16
2022-10-04T14:07:12.221Z,101665.81
2022-10-04T14:12:41.543Z,101644.88
2022-10-04T14:18:27.652Z,101652.50
2022-10-04T14:23:52.040Z,101650.06
2022-10-04T14:29:35.451Z,101635.47
2022-10-04T14:34:55.066Z,101632.47
2022-10-04T14:40:21.011Z,101631.28
2022-10-04T14:45:43.436Z,101622.66
2022-10-04T14:50:58.037Z,101617.84
2022-10-04T14:56:38.136Z,101609.69
2022-10-04T15:02:07.152Z,101608.56
2022-10-04T15:07:20.097Z,101612.63
2022-10-04T15:18:27.978Z,101625.75
2022-10-04T15:23:37.771Z,101628.41
2022-10-04T15:29:02.583Z,101623.16
2022-10-04T15:34:22.573Z,101625.91
2022-10-04T15:39:57.985Z,101610.22
2022-10-04T15:45:50.934Z,101614.00
2022-10-04T15:51:04.471Z,101624.16
2022-10-04T15:56:19.554Z,101629.50
2022-10-04T16:01:38.102Z,101624.78
2022-10-04T16:06:50.973Z,101620.19
2022-10-04T16:12:05.977Z,101614.84
2022-10-04T16:17:28.651Z,101621.47
2022-10-04T16:22:34.504Z,101609.47
2022-10-04T16:28:05.544Z,101614.69
2022-10-04T16:33:25.232Z,101600.13
2022-10-04T16:38:33.615Z,101604.53
2022-10-04T16:43:40.998Z,101605.53
2022-10-04T16:48:52.039Z,101597.03
2022-10-04T16:54:04.533Z,101601.31
2022-10-04T16:59:12.933Z,101593.91
2022-10-04T17:04:31.990Z,101587.81
2022-10-04T17:09:47.068Z,101595.84
2022-10-04T17:15:24.600Z,101575.59
2022-10-04T17:20:38.752Z,101621.09
2022-10-04T17:25:51.904Z,101623.13
2022-10-04T17:31:01.879Z,101626.00
2022-10-04T17:36:30.880Z,101632.03
2022-10-04T17:41:52.175Z,101633.22
2022-10-04T17:47:01.057Z,101637.41
2022-10-04T17:52:24.087Z,101640.91
2022-10-04T17:57:37.817Z,101645.22
2022-10-04T18:03:00.500Z,101655.34
2022-10-04T18:08:12.497Z,101642.91
2022-10-04T18:13:27.366Z,101654.03
2022-10-04T18:18:38.817Z,101636.53
2022-10-04T18:23:53.606Z,101655.47
2022-10-04T18:29:00.621Z,101645.66
2022-10-04T18:34:17.893Z,101643.19
2022-10-04T18:39:22.602Z,101650.22
2022-10-04T18:44:29.733Z,101643.94
2022-10-04T18:49:48.077Z,101657.91
2022-10-04T18:55:04.232Z,101656.22
2022-10-04T19:00:30.728Z,101655.28
2022-10-04T19:05:41.570Z,101625.72
2022-10-04T19:10:50.182Z,101585.34
2022-10-04T19:16:12.521Z,101627.03
2022-10-04T19:21:26.137Z,101600.91
2022-10-04T19:26:33.120Z,101617.19
2022-10-04T19:31:50.461Z,101633.94
2022-10-04T19:36:59.422Z,101639.97
2022-10-04T19:42:05.260Z,101643.16
2022-10-04T19:47:24.085Z,101632.41
2022-10-04T19:52:36.509Z,101633.34
2022-10-04T19:57:40.097Z,101618.16
2022-10-04T20:02:48.718Z,101632.66
2022-10-04T20:07:54.594Z,101615.94
2022-10-04T20:13:24.050Z,101644.69
2022-10-04T20:19:02.280Z,101641.41
2022-10-04T20:24:05.214Z,101627.34
2022-10-04T20:29:08.280Z,101613.28
2022-10-04T20:34:33.104Z,101600.94
2022-10-04T20:39:59.940Z,101604.22
2022-10-04T20:45:20.775Z,101598.78
2022-10-04T20:50:31.816Z,101600.50
2022-10-04T20:55:36.607Z,101597.09
2022-10-04T21:00:52.161Z,101607.75
2022-10-04T21:06:05.118Z,101602.59
2022-10-04T21:11:20.210Z,101623.97
2022-10-04T21:16:41.241Z,101587.03
2022-10-04T21:21:51.710Z,101584.38
2022-10-04T21:26:56.311Z,101617.66
2022-10-04T21:31:59.114Z,101597.94
2022-10-04T21:37:03.417Z,101597.63
2022-10-04T21:42:06.676Z,101594.88
2022-10-04T21:47:09.383Z,101611.56
2022-10-04T21:52:13.310Z,101623.84
2022-10-04T21:57:15.950Z,101622.28
2022-10-04T22:02:18.524Z,101615.09
2022-10-04T22:07:22.438Z,101602.94
2022-10-04T22:12:25.287Z,101593.34
2022-10-04T22:17:27.823Z,101595.56
2022-10-04T22:22:35.316Z,101579.66
2022-10-04T22:27:42.147Z,101609.00
2022-10-04T22:32:45.559Z,101625.13
2022-10-04T22:37:49.733Z,101622.88
2022-10-04T22:42:54.258Z,101575.28
2022-10-04T22:48:00.187Z,101609.88
2022-10-04T22:53:08.543Z,101606.25
2022-10-04T22:58:14.079Z,101599.69
2022-10-04T23:03:26.001Z,101597.56
2022-10-04T23:08:30.914Z,101596.44
2022-10-04T23:13:33.588Z,101598.19
2022-10-04T23:18:36.375Z,101569.19
2022-10-04T23:23:40.292Z,101589.78
2022-10-04T23:28:42.952Z,101592.03
2022-10-04T23:33:45.693Z,101579.69
2022-10-04T23:38:52.821Z,101578.34
2022-10-04T23:43:55.417Z,101563.97
2022-10-04T23:48:57.986Z,101563.25
2022-10-04T23:54:01.857Z,101557.91
2022-10-04T23:59:05.640Z,101549.19
